createdAt,value
2022-11-25T00:01:24.140Z,1.90
2022-11-25T00:03:53.901Z,2.20
2022-11-25T00:11:19.236Z,2.00
2022-11-25T00:13:48.216Z,2.00
2022-11-25T00:16:21.153Z,1.90
2022-11-25T00:18:52.067Z,1.90
2022-11-25T00:24:04.109Z,1.80
2022-11-25T00:26:32.825Z,1.70
2022-11-25T00:29:03.708Z,1.40
2022-11-25T00:31:34.431Z,1.30
2022-11-25T00:36:36.346Z,1.00
2022-11-25T00:39:24.468Z,0.90
2022-11-25T00:42:09.759Z,1.00
2022-11-25T00:44:37.851Z,0.90
2022-11-25T00:47:15.455Z,1.10
2022-11-25T00:52:19.911Z,1.10
2022-11-25T00:59:46.132Z,1.40
2022-11-25T01:02:14.936Z,1.20
2022-11-25T01:04:44.159Z,1.10
2022-11-25T01:07:11.565Z,1.10
2022-11-25T01:09:38.610Z,1.10
2022-11-25T01:12:06.285Z,1.10
2022-11-25T01:17:02.940Z,1.20
2022-11-25T01:19:29.968Z,1.20
2022-11-25T01:21:59.966Z,1.20
2022-11-25T01:26:55.863Z,1.20
2022-11-25T01:29:22.892Z,1.30
2022-11-25T01:36:52.627Z,1.50
2022-11-25T01:39:25.634Z,1.30
2022-11-25T01:41:57.985Z,1.30
2022-11-25T01:47:09.522Z,1.30
2022-11-25T01:50:03.061Z,1.20
2022-11-25T01:52:46.325Z,0.90
2022-11-25T02:08:08.603Z,0.70
2022-11-25T02:10:36.861Z,1.00
2022-11-25T02:13:03.879Z,1.10
2022-11-25T02:15:34.354Z,1.20
2022-11-25T02:18:04.398Z,1.20
2022-11-25T02:25:55.116Z,1.30
2022-11-25T02:30:55.263Z,1.50
2022-11-25T02:33:23.674Z,1.70
2022-11-25T02:46:30.496Z,1.80
2022-11-25T02:51:45.038Z,1.80
2022-11-25T02:54:14.612Z,1.60
2022-11-25T03:16:45.743Z,1.60
2022-11-25T04:33:37.254Z,1.40
2022-11-25T04:36:04.753Z,1.80
2022-11-25T04:38:31.743Z,1.80
2022-11-25T04:40:58.735Z,1.80
2022-11-25T05:19:08.886Z,1.70
2022-11-25T05:21:36.021Z,1.10
2022-11-25T05:24:03.087Z,0.90
2022-11-25T05:26:31.146Z,1.00
2022-11-25T06:54:41.442Z,1.10
2022-11-25T06:57:10.073Z,0.90
2022-11-25T06:59:37.582Z,0.90
2022-11-25T07:02:04.961Z,1.10
2022-11-25T07:04:34.481Z,1.10
2022-11-25T07:07:01.705Z,1.00
2022-11-25T07:09:28.627Z,1.00
2022-11-25T07:11:55.556Z,0.90
2022-11-25T07:14:22.545Z,0.70
2022-11-25T07:16:49.716Z,0.70
2022-11-25T07:19:18.843Z,0.60
2022-11-25T07:21:46.596Z,0.60
2022-11-25T07:24:18.567Z,0.70
2022-11-25T07:26:45.640Z,1.10
2022-11-25T07:29:51.571Z,1.30
2022-11-25T07:32:10.042Z,1.30
2022-11-25T07:34:37.979Z,1.30
2022-11-25T07:37:05.039Z,1.50
2022-11-25T07:39:32.088Z,1.50
2022-11-25T07:41:59.212Z,1.60
2022-11-25T07:44:26.151Z,1.80
2022-11-25T07:47:00.766Z,1.90
2022-11-25T07:49:27.703Z,2.20
2022-11-25T07:51:59.601Z,2.40
2022-11-25T07:54:26.981Z,2.70
2022-11-25T07:56:53.992Z,2.90
2022-11-25T07:59:23.130Z,3.10
2022-11-25T08:01:52.968Z,3.40
2022-11-25T08:04:21.266Z,3.60
2022-11-25T08:06:51.098Z,3.70
2022-11-25T08:09:22.386Z,3.90
2022-11-25T08:11:50.434Z,4.10
2022-11-25T08:14:18.536Z,4.30
2022-11-25T08:16:46.233Z,4.50
2022-11-25T08:19:17.290Z,4.60
2022-11-25T08:21:44.688Z,4.80
2022-11-25T08:24:21.179Z,4.90
2022-11-25T08:26:49.267Z,4.90
2022-11-25T08:29:19.084Z,5.00
2022-11-25T08:31:46.364Z,5.00
2022-11-25T08:34:22.867Z,4.50
2022-11-25T08:36:53.517Z,4.30
2022-11-25T08:39:51.130Z,4.50
2022-11-25T08:42:09.183Z,4.70
2022-11-25T08:44:36.862Z,4.80
2022-11-25T08:47:04.163Z,4.80
2022-11-25T08:49:33.779Z,4.80
2022-11-25T08:52:02.188Z,4.80
2022-11-25T08:54:29.240Z,4.40
2022-11-25T08:56:56.244Z,4.30
2022-11-25T08:59:23.437Z,4.20
2022-11-25T09:01:50.545Z,4.30
2022-11-25T09:04:17.871Z,3.90
2022-11-25T09:06:44.879Z,3.50
2022-11-25T09:09:11.823Z,3.40
2022-11-25T09:11:38.896Z,3.40
2022-11-25T09:14:05.955Z,3.60
2022-11-25T09:16:33.018Z,3.70
2022-11-25T09:19:00.140Z,3.90
2022-11-25T09:21:27.248Z,4.10
2022-11-25T09:23:57.027Z,4.30
2022-11-25T09:26:30.168Z,4.50
2022-11-25T09:28:57.785Z,4.70
2022-11-25T09:31:24.894Z,5.00
2022-11-25T09:33:52.297Z,5.10
2022-11-25T09:36:20.435Z,5.20
2022-11-25T09:38:47.964Z,5.40
2022-11-25T09:42:02.330Z,5.60
2022-11-25T09:45:00.194Z,5.90
2022-11-25T09:47:48.896Z,6.00
2022-11-25T09:51:02.908Z,6.10
2022-11-25T09:53:50.621Z,6.40
2022-11-25T09:56:43.793Z,6.30
2022-11-25T09:59:21.414Z,6.40
2022-11-25T10:02:22.764Z,6.50
2022-11-25T10:05:00.307Z,6.70
2022-11-25T10:07:39.730Z,6.90
2022-11-25T10:10:34.812Z,6.90
2022-11-25T10:13:03.332Z,6.80
2022-11-25T10:15:37.062Z,6.80
2022-11-25T10:18:22.475Z,6.80
2022-11-25T11:35:05.976Z,6.90
2022-11-25T11:37:46.039Z,8.00
2022-11-25T11:40:37.368Z,8.00
2022-11-25T11:43:29.914Z,8.10
2022-11-25T11:46:27.865Z,8.10
2022-11-25T11:49:23.958Z,8.10
2022-11-25T11:52:00.254Z,8.20
2022-11-25T11:54:46.028Z,8.20
2022-11-25T11:57:52.181Z,8.20
2022-11-25T12:00:20.902Z,8.10
2022-11-25T12:03:11.272Z,8.10
2022-11-25T12:05:38.423Z,8.10
2022-11-25T12:08:28.472Z,8.10
2022-11-25T12:11:03.814Z,8.00
2022-11-25T12:14:10.068Z,7.80
2022-11-25T12:16:56.170Z,7.70
2022-11-25T12:19:56.188Z,7.80
2022-11-25T12:22:34.332Z,7.80
2022-11-25T12:25:33.381Z,7.90
2022-11-25T12:28:11.622Z,7.90
2022-11-25T12:31:12.825Z,7.90
2022-11-25T12:33:57.981Z,7.80
2022-11-25T12:36:44.451Z,7.50
2022-11-25T12:39:47.131Z,7.50
2022-11-25T12:42:23.587Z,7.50
2022-11-25T12:45:02.230Z,7.50
2022-11-25T12:47:29.228Z,7.40
2022-11-25T12:49:57.098Z,7.40
2022-11-25T12:52:42.201Z,7.50
2022-11-25T12:55:25.819Z,7.50
2022-11-25T12:58:32.786Z,7.30
2022-11-25T13:01:30.483Z,7.30
2022-11-25T13:04:41.118Z,7.30
2022-11-25T13:07:55.757Z,7.20
2022-11-25T13:10:43.468Z,7.20
2022-11-25T13:13:43.698Z,7.20
2022-11-25T13:16:11.889Z,7.30
2022-11-25T13:18:43.260Z,7.30
2022-11-25T13:21:13.216Z,7.40
2022-11-25T13:24:00.481Z,7.20
2022-11-25T13:26:32.364Z,7.20
2022-11-25T13:29:01.735Z,7.10
2022-11-25T13:31:35.499Z,7.00
2022-11-25T13:34:24.807Z,7.00
2022-11-25T13:36:54.883Z,6.90
2022-11-25T13:39:34.757Z,6.90
2022-11-25T13:42:16.663Z,6.80
2022-11-25T13:44:56.118Z,6.90
2022-11-25T13:47:32.471Z,6.90
2022-11-25T13:50:10.663Z,6.80
2022-11-25T13:52:47.456Z,6.70
2022-11-25T13:55:17.433Z,6.80
2022-11-25T13:57:48.128Z,6.80
2022-11-25T14:00:15.003Z,6.80
2022-11-25T14:02:49.839Z,6.80
2022-11-25T14:05:45.526Z,6.80
2022-11-25T14:08:46.339Z,6.70
2022-11-25T14:12:24.598Z,6.80
2022-11-25T14:15:24.708Z,7.00
2022-11-25T14:18:16.750Z,7.00
2022-11-25T14:20:58.439Z,7.10
2022-11-25T14:23:54.405Z,7.20
2022-11-25T14:26:49.392Z,7.10
2022-11-25T14:29:29.046Z,7.20
2022-11-25T14:32:12.799Z,7.30
2022-11-25T14:34:53.254Z,7.30
2022-11-25T14:37:27.877Z,7.50
2022-11-25T14:40:15.650Z,7.60
2022-11-25T14:42:48.696Z,7.60
2022-11-25T14:47:51.263Z,7.60
2022-11-25T14:50:35.280Z,7.60
2022-11-25T14:53:09.858Z,7.70
2022-11-25T14:55:38.007Z,7.60
2022-11-25T14:58:05.056Z,7.70
2022-11-25T15:00:32.063Z,7.70
2022-11-25T15:03:06.727Z,7.70
2022-11-25T15:05:36.196Z,7.70
2022-11-25T15:08:17.848Z,7.70
2022-11-25T15:10:52.127Z,7.70
2022-11-25T15:13:24.795Z,7.60
2022-11-25T15:15:53.558Z,7.50
2022-11-25T15:18:23.367Z,7.50
2022-11-25T15:21:00.366Z,7.50
2022-11-25T15:23:36.913Z,7.50
2022-11-25T15:26:05.291Z,7.50
2022-11-25T15:28:37.866Z,7.50
2022-11-25T15:31:19.762Z,7.50
2022-11-25T15:33:54.402Z,7.50
2022-11-25T15:36:23.991Z,7.00
2022-11-25T15:38:51.656Z,7.40
2022-11-25T15:41:35.081Z,7.40
2022-11-25T15:44:05.137Z,7.40
2022-11-25T15:46:35.264Z,7.40
2022-11-25T15:49:06.442Z,7.40
2022-11-25T15:51:57.689Z,7.40
2022-11-25T15:54:43.043Z,7.40
2022-11-25T15:57:34.728Z,7.30
2022-11-25T16:00:01.613Z,7.20
2022-11-25T16:02:50.745Z,7.10
2022-11-25T16:05:32.795Z,7.10
2022-11-25T16:08:16.638Z,7.10
2022-11-25T16:10:43.479Z,7.10
2022-11-25T16:13:28.151Z,7.10
2022-11-25T16:16:07.031Z,7.10
2022-11-25T16:18:41.201Z,7.10
2022-11-25T16:21:36.927Z,7.10
2022-11-25T16:24:06.944Z,7.10
2022-11-25T16:26:39.647Z,7.10
2022-11-25T16:29:18.167Z,7.10
2022-11-25T16:31:45.384Z,7.20
2022-11-25T16:34:20.124Z,7.20
2022-11-25T16:36:47.152Z,7.30
2022-11-25T16:39:14.280Z,7.40
2022-11-25T16:41:42.344Z,7.40
2022-11-25T16:44:28.228Z,7.40
2022-11-25T16:46:55.511Z,7.40
2022-11-25T16:49:22.760Z,7.30
2022-11-25T16:51:51.002Z,7.20
2022-11-25T16:54:22.982Z,7.20
2022-11-25T16:56:53.508Z,7.20
2022-11-25T16:59:25.757Z,7.10
2022-11-25T17:01:53.364Z,7.20
2022-11-25T17:04:20.394Z,7.10
2022-11-25T17:07:09.590Z,7.20
2022-11-25T17:09:34.767Z,7.20
2022-11-25T17:12:01.863Z,7.20
2022-11-25T17:14:33.953Z,7.10
2022-11-25T17:17:04.581Z,7.10
2022-11-25T17:19:31.947Z,7.00
2022-11-25T17:21:58.940Z,7.00
2022-11-25T17:24:27.093Z,7.00
2022-11-25T17:27:00.388Z,6.90
2022-11-25T17:29:37.403Z,6.80
2022-11-25T17:32:05.260Z,6.90
2022-11-25T17:34:37.842Z,6.90
2022-11-25T17:37:33.023Z,6.90
2022-11-25T17:40:00.118Z,6.80
2022-11-25T17:42:33.645Z,6.70
2022-11-25T17:45:00.926Z,6.70
2022-11-25T17:47:28.191Z,6.60
2022-11-25T17:49:55.373Z,6.60
2022-11-25T17:52:22.526Z,6.60
2022-11-25T17:54:49.483Z,6.60
2022-11-25T17:57:20.965Z,6.60
2022-11-25T17:59:48.163Z,6.60
2022-11-25T18:02:21.348Z,6.60
2022-11-25T18:04:49.189Z,6.60
2022-11-25T18:07:16.680Z,6.70
2022-11-25T18:09:44.641Z,6.80
2022-11-25T18:12:28.466Z,6.80
2022-11-25T18:14:56.323Z,6.90
2022-11-25T18:17:23.381Z,6.90
2022-11-25T18:19:55.044Z,6.90
2022-11-25T18:22:24.214Z,6.90
2022-11-25T18:24:52.497Z,6.80
2022-11-25T18:27:28.703Z,6.70
2022-11-25T18:29:57.433Z,6.60
2022-11-25T18:32:25.738Z,6.60
2022-11-25T18:34:53.093Z,6.60
2022-11-25T18:37:20.319Z,6.50
2022-11-25T18:39:47.272Z,6.60
2022-11-25T18:42:44.406Z,6.60
2022-11-25T18:45:21.778Z,6.60
2022-11-25T18:47:49.163Z,6.60
2022-11-25T18:50:27.729Z,6.60
2022-11-25T18:52:55.161Z,6.60
2022-11-25T18:55:23.398Z,6.50
2022-11-25T18:57:52.140Z,6.50
2022-11-25T19:00:33.121Z,6.50
2022-11-25T19:03:00.941Z,6.50
2022-11-25T19:05:33.703Z,6.60
2022-11-25T19:08:00.987Z,6.60
2022-11-25T19:10:31.498Z,6.70
2022-11-25T19:13:03.518Z,6.70
2022-11-25T19:15:30.576Z,6.80
2022-11-25T19:18:01.198Z,6.70
2022-11-25T19:20:30.065Z,6.70
2022-11-25T19:23:00.872Z,6.70
2022-11-25T19:25:28.833Z,6.70
2022-11-25T19:27:59.779Z,6.70
2022-11-25T19:30:31.061Z,6.70
2022-11-25T19:33:01.432Z,6.70
2022-11-25T19:35:38.140Z,6.70
2022-11-25T19:38:18.282Z,6.70
2022-11-25T19:40:45.622Z,6.70
2022-11-25T19:43:12.674Z,6.70
2022-11-25T19:45:39.808Z,6.70
2022-11-25T19:48:13.660Z,6.70
2022-11-25T19:50:41.406Z,6.70
2022-11-25T19:53:19.955Z,6.60
2022-11-25T19:55:48.139Z,6.60
2022-11-25T19:58:15.321Z,6.60
2022-11-25T20:00:44.631Z,6.60
2022-11-25T20:03:23.915Z,6.60
2022-11-25T20:05:53.474Z,6.60
2022-11-25T20:08:25.093Z,6.60
2022-11-25T20:10:52.941Z,6.60
2022-11-25T20:13:20.800Z,6.50
2022-11-25T20:15:47.892Z,6.40
2022-11-25T20:18:20.109Z,6.20
2022-11-25T20:20:56.002Z,6.10
2022-11-25T20:23:43.251Z,6.00
2022-11-25T20:26:26.683Z,5.90
2022-11-25T20:28:53.658Z,5.90
2022-11-25T20:31:20.858Z,5.90
2022-11-25T20:33:48.595Z,5.90
2022-11-25T20:36:20.905Z,5.90
2022-11-25T20:38:52.732Z,5.90
2022-11-25T20:41:24.384Z,5.90
2022-11-25T20:43:55.584Z,5.80
2022-11-25T20:46:29.929Z,5.80
2022-11-25T20:49:00.852Z,5.80
2022-11-25T20:51:28.093Z,5.70
2022-11-25T20:54:02.810Z,5.50
2022-11-25T20:56:30.879Z,5.50
2022-11-25T20:58:57.943Z,5.40
2022-11-25T21:01:25.194Z,5.40
2022-11-25T21:03:52.275Z,5.30
2022-11-25T21:06:27.525Z,5.30
2022-11-25T21:08:58.366Z,5.20
2022-11-25T21:11:27.689Z,5.20
2022-11-25T21:13:55.191Z,5.20
2022-11-25T21:16:22.289Z,5.10
2022-11-25T21:18:49.404Z,5.00
2022-11-25T21:21:22.192Z,4.90
2022-11-25T21:23:49.202Z,4.80
2022-11-25T21:26:23.312Z,4.70
2022-11-25T21:28:53.110Z,4.70
2022-11-25T21:31:25.628Z,4.60
2022-11-25T21:33:58.911Z,4.40
2022-11-25T21:36:30.464Z,4.30
2022-11-25T21:39:30.464Z,4.20
2022-11-25T21:42:03.675Z,4.20
2022-11-25T21:44:42.055Z,4.10
2022-11-25T21:47:19.006Z,4.20
2022-11-25T21:49:46.599Z,4.30
2022-11-25T21:52:14.242Z,4.40
2022-11-25T21:54:41.695Z,4.40
2022-11-25T21:57:25.260Z,4.40
2022-11-25T21:59:52.269Z,4.30
2022-11-25T22:02:24.376Z,4.30
2022-11-25T22:04:52.315Z,4.50
2022-11-25T22:07:19.466Z,4.80
2022-11-25T22:09:46.715Z,4.90
2022-11-25T22:12:28.492Z,5.10
2022-11-25T22:14:58.146Z,5.30
2022-11-25T22:17:25.981Z,5.40
2022-11-25T22:19:53.494Z,5.30
2022-11-25T22:22:20.738Z,5.20
2022-11-25T22:24:47.926Z,4.70
2022-11-25T22:27:25.253Z,4.70
2022-11-25T22:29:53.146Z,4.60
2022-11-25T22:32:20.212Z,4.60
2022-11-25T22:34:47.273Z,4.60
2022-11-25T22:37:21.103Z,4.70
2022-11-25T22:39:48.926Z,4.70
2022-11-25T22:42:28.690Z,4.70
2022-11-25T22:44:57.402Z,4.80
2022-11-25T22:47:41.120Z,4.80
2022-11-25T22:50:22.657Z,4.70
2022-11-25T22:52:51.060Z,4.60
2022-11-25T22:55:29.198Z,4.50
2022-11-25T22:57:59.744Z,4.50
2022-11-25T23:00:33.785Z,4.60
2022-11-25T23:03:04.969Z,4.40
2022-11-25T23:05:40.147Z,4.50
2022-11-25T23:08:17.447Z,4.60
2022-11-25T23:10:45.718Z,4.60
2022-11-25T23:13:14.523Z,4.60
2022-11-25T23:15:59.170Z,4.70
2022-11-25T23:18:39.382Z,4.70
2022-11-25T23:21:27.863Z,4.60
2022-11-25T23:23:55.228Z,4.60
2022-11-25T23:26:22.969Z,4.60
2022-11-25T23:28:50.083Z,4.70
2022-11-25T23:31:17.491Z,4.80
2022-11-25T23:33:48.674Z,4.80
2022-11-25T23:36:27.562Z,4.90
2022-11-25T23:39:03.591Z,4.70
2022-11-25T23:41:34.158Z,4.50
2022-11-25T23:44:20.470Z,4.50
2022-11-25T23:46:48.480Z,4.70
2022-11-25T23:49:28.616Z,4.90
2022-11-25T23:52:03.374Z,5.00
2022-11-25T23:54:44.426Z,5.20
2022-11-25T23:57:21.504Z,5.30
2022-11-25T23:59:49.513Z,5.20
